This is the latest recevied weather packets stored in our database for station/object LEAS. If no packets are shown the sender has not sent any weather packets the latest 10 day(s).
| Time | Temp. | Humidity | Pressure | Rain* | Wind** | Luminosity | Snow |
|---|---|---|---|---|---|---|---|
| 1788278403 | 22.78° C | 68% | 1020 hPa | - | - | - | - |
| 1788277503 | 22.78° C | 68% | 1020 hPa | - | - | - | - |
| 1788275703 | 22.78° C | 68% | 1020 hPa | - | - | - | - |
| 1788273003 | 23.89° C | 64% | 1021 hPa | - | - | - | - |
| 1788269404 | 22.22° C | 73% | 1021 hPa | - | - | - | - |
| 1788267603 | 22.78° C | 68% | 1022 hPa | - | - | - | - |
| 1788265804 | 22.22° C | 68% | 1022 hPa | - | - | - | - |
| 1788260404 | 22.22° C | 68% | 1022 hPa | - | - | - | - |
| 1788259504 | 22.22° C | 68% | 1022 hPa | - | - | - | - |
| 1788258604 | 21.11° C | 64% | 1022 hPa | - | - | - | - |
| 1788256804 | 22.22° C | 64% | 1022 hPa | - | - | - | - |
| 1788255003 | 21.11° C | 68% | 1022 hPa | - | - | - | - |
| 1788253204 | 20° C | 77% | 1021 hPa | - | - | - | - |
| 1788252304 | 20° C | 77% | 1021 hPa | - | - | - | - |
| 1788250503 | 17.78° C | 88% | 1021 hPa | - | - | - | - |
| 1788247803 | 17.78° C | 88% | 1021 hPa | - | - | - | - |
| 1788246903 | 17.78° C | 88% | 1021 hPa | - | - | - | - |
| 1788242403 | 17.22° C | 93% | 1021 hPa | - | - | - | - |
| 1788241502 | 17.22° C | 93% | 1021 hPa | - | - | - | - |
| 1788240604 | 17.78° C | 88% | 1021 hPa | - | - | - | - |
| 1788239703 | 17.78° C | 88% | 1021 hPa | - | - | - | - |
| 1788236104 | 17.78° C | 88% | 1021 hPa | - | - | - | - |
| 1788235204 | 17.78° C | 88% | 1021 hPa | - | - | - | - |
| 1788232503 | 17.78° C | 93% | 1021 hPa | - | - | - | - |
| 1788228003 | 18.89° C | 88% | 1022 hPa | - | - | - | - |
* Rain since midnight (hover to see other rain measurements)
** Current wind speed in m/s (hover to see current wind gust speed)